IVLH weather

Inverell Hospital Helipad
Inverell, New South Wales, Australia

Public forecast

Using degrees Celsius for public forecast. Weather courtesy of forecast.io.

Closest aviation weather report (METAR) to Inverell Hospital Helipad

Closest report is Moree Airport, 69.1 nm (127.9 km) WNW. Retrieved 2019/10/17 22:00 UTC (37 minutes ago):

YMOR 172200Z AUTO 18013KT 9999 // NCD 19/M06 Q1019

Closest aviation forecast (TAF) to Inverell Hospital Helipad

Closest forecast is Tamworth Airport, 80.1 nm (148.4 km) S. Retrieved 2019/10/17 18:36 UTC (4 hours ago):

TAF YSTW 171647Z 1718/1812 VRB03KT CAVOK FM180000 28008KT CAVOK FM180900 01008KT CAVOK